sensor_id;sensor_type;location;lat;lon;timestamp;P1;durP1;ratioP1;P2;durP2;ratioP2
14734;SDS011;7458;49.002;8.472;2023-04-09T00:00:08;9.45;;;8.25;;
14734;SDS011;7458;49.002;8.472;2023-04-09T00:02:36;10.57;;;7.50;;
14734;SDS011;7458;49.002;8.472;2023-04-09T00:05:03;9.30;;;8.40;;
14734;SDS011;7458;49.002;8.472;2023-04-09T00:07:30;8.95;;;7.38;;
14734;SDS011;7458;49.002;8.472;2023-04-09T00:09:56;9.68;;;8.73;;
14734;SDS011;7458;49.002;8.472;2023-04-09T00:12:22;12.20;;;10.20;;
14734;SDS011;7458;49.002;8.472;2023-04-09T00:14:47;9.82;;;8.82;;
14734;SDS011;7458;49.002;8.472;2023-04-09T00:17:13;10.00;;;9.00;;
14734;SDS011;7458;49.002;8.472;2023-04-09T00:19:39;13.80;;;9.65;;
14734;SDS011;7458;49.002;8.472;2023-04-09T00:22:05;10.65;;;9.65;;
14734;SDS011;7458;49.002;8.472;2023-04-09T00:24:31;10.43;;;8.70;;
14734;SDS011;7458;49.002;8.472;2023-04-09T00:26:58;12.25;;;9.45;;
14734;SDS011;7458;49.002;8.472;2023-04-09T00:29:23;10.68;;;9.13;;
14734;SDS011;7458;49.002;8.472;2023-04-09T00:31:50;9.02;;;7.63;;
14734;SDS011;7458;49.002;8.472;2023-04-09T00:34:15;10.50;;;9.40;;
14734;SDS011;7458;49.002;8.472;2023-04-09T00:36:41;9.90;;;8.88;;
14734;SDS011;7458;49.002;8.472;2023-04-09T00:39:08;10.10;;;9.05;;
14734;SDS011;7458;49.002;8.472;2023-04-09T00:41:34;11.05;;;9.48;;
14734;SDS011;7458;49.002;8.472;2023-04-09T00:44:00;9.75;;;8.45;;
14734;SDS011;7458;49.002;8.472;2023-04-09T00:46:26;13.55;;;9.23;;
14734;SDS011;7458;49.002;8.472;2023-04-09T00:48:51;9.90;;;8.90;;
14734;SDS011;7458;49.002;8.472;2023-04-09T00:51:18;12.55;;;9.10;;
14734;SDS011;7458;49.002;8.472;2023-04-09T00:53:44;9.23;;;7.82;;
14734;SDS011;7458;49.002;8.472;2023-04-09T00:56:11;10.27;;;8.63;;
14734;SDS011;7458;49.002;8.472;2023-04-09T00:58:41;11.32;;;10.00;;
14734;SDS011;7458;49.002;8.472;2023-04-09T01:01:07;10.85;;;9.75;;
14734;SDS011;7458;49.002;8.472;2023-04-09T01:03:33;12.05;;;8.10;;
14734;SDS011;7458;49.002;8.472;2023-04-09T01:06:09;12.85;;;8.55;;
14734;SDS011;7458;49.002;8.472;2023-04-09T01:12:06;10.40;;;9.23;;
14734;SDS011;7458;49.002;8.472;2023-04-09T01:17:32;11.98;;;9.10;;
14734;SDS011;7458;49.002;8.472;2023-04-09T01:29:18;11.48;;;9.15;;
14734;SDS011;7458;49.002;8.472;2023-04-09T01:31:46;12.02;;;9.00;;
14734;SDS011;7458;49.002;8.472;2023-04-09T01:34:14;11.98;;;9.52;;
14734;SDS011;7458;49.002;8.472;2023-04-09T01:36:41;13.15;;;11.35;;
14734;SDS011;7458;49.002;8.472;2023-04-09T01:39:16;10.60;;;8.02;;
14734;SDS011;7458;49.002;8.472;2023-04-09T01:41:42;10.75;;;9.65;;
14734;SDS011;7458;49.002;8.472;2023-04-09T01:44:09;9.90;;;8.65;;
14734;SDS011;7458;49.002;8.472;2023-04-09T01:46:38;11.40;;;8.85;;
14734;SDS011;7458;49.002;8.472;2023-04-09T01:49:05;10.95;;;8.82;;
14734;SDS011;7458;49.002;8.472;2023-04-09T01:51:31;13.98;;;11.30;;
14734;SDS011;7458;49.002;8.472;2023-04-09T01:53:59;13.60;;;9.57;;
14734;SDS011;7458;49.002;8.472;2023-04-09T01:56:25;10.68;;;9.35;;
14734;SDS011;7458;49.002;8.472;2023-04-09T01:58:51;12.13;;;9.35;;
14734;SDS011;7458;49.002;8.472;2023-04-09T02:01:25;10.70;;;9.05;;
14734;SDS011;7458;49.002;8.472;2023-04-09T02:04:04;11.27;;;8.90;;
14734;SDS011;7458;49.002;8.472;2023-04-09T02:06:43;10.15;;;8.73;;
14734;SDS011;7458;49.002;8.472;2023-04-09T02:09:22;12.13;;;8.38;;
14734;SDS011;7458;49.002;8.472;2023-04-09T02:11:51;8.88;;;7.32;;
14734;SDS011;7458;49.002;8.472;2023-04-09T02:14:20;13.95;;;10.30;;
14734;SDS011;7458;49.002;8.472;2023-04-09T02:16:50;13.55;;;10.45;;
14734;SDS011;7458;49.002;8.472;2023-04-09T02:19:16;12.55;;;9.45;;
14734;SDS011;7458;49.002;8.472;2023-04-09T02:21:42;13.77;;;10.32;;
14734;SDS011;7458;49.002;8.472;2023-04-09T02:24:08;10.68;;;9.15;;
14734;SDS011;7458;49.002;8.472;2023-04-09T02:26:34;13.23;;;8.65;;
14734;SDS011;7458;49.002;8.472;2023-04-09T02:29:00;11.20;;;9.85;;
14734;SDS011;7458;49.002;8.472;2023-04-09T02:31:26;18.90;;;9.13;;
14734;SDS011;7458;49.002;8.472;2023-04-09T02:33:51;11.63;;;10.13;;
14734;SDS011;7458;49.002;8.472;2023-04-09T02:36:18;13.85;;;9.68;;
14734;SDS011;7458;49.002;8.472;2023-04-09T02:38:44;11.43;;;10.23;;
14734;SDS011;7458;49.002;8.472;2023-04-09T02:41:10;11.00;;;8.27;;
14734;SDS011;7458;49.002;8.472;2023-04-09T02:43:36;11.65;;;8.73;;
14734;SDS011;7458;49.002;8.472;2023-04-09T02:46:02;11.25;;;8.75;;
14734;SDS011;7458;49.002;8.472;2023-04-09T02:48:29;11.93;;;9.65;;
14734;SDS011;7458;49.002;8.472;2023-04-09T02:50:55;12.10;;;9.05;;
14734;SDS011;7458;49.002;8.472;2023-04-09T02:53:21;12.60;;;10.07;;
14734;SDS011;7458;49.002;8.472;2023-04-09T02:55:47;12.90;;;9.45;;
14734;SDS011;7458;49.002;8.472;2023-04-09T02:58:13;15.25;;;9.90;;
14734;SDS011;7458;49.002;8.472;2023-04-09T03:00:39;11.93;;;9.90;;
14734;SDS011;7458;49.002;8.472;2023-04-09T03:03:05;11.13;;;9.73;;
14734;SDS011;7458;49.002;8.472;2023-04-09T03:05:31;11.77;;;9.30;;
14734;SDS011;7458;49.002;8.472;2023-04-09T03:07:57;12.02;;;10.00;;
14734;SDS011;7458;49.002;8.472;2023-04-09T03:10:23;12.43;;;9.75;;
14734;SDS011;7458;49.002;8.472;2023-04-09T03:12:49;12.73;;;9.30;;
14734;SDS011;7458;49.002;8.472;2023-04-09T03:15:15;12.82;;;11.23;;
14734;SDS011;7458;49.002;8.472;2023-04-09T03:17:43;15.75;;;11.32;;
14734;SDS011;7458;49.002;8.472;2023-04-09T03:20:09;12.73;;;9.23;;
14734;SDS011;7458;49.002;8.472;2023-04-09T03:22:35;13.40;;;9.88;;
14734;SDS011;7458;49.002;8.472;2023-04-09T03:25:02;12.38;;;9.70;;
14734;SDS011;7458;49.002;8.472;2023-04-09T03:27:28;10.43;;;9.27;;
14734;SDS011;7458;49.002;8.472;2023-04-09T03:29:56;14.15;;;11.05;;
14734;SDS011;7458;49.002;8.472;2023-04-09T03:32:22;10.55;;;9.45;;
14734;SDS011;7458;49.002;8.472;2023-04-09T03:34:47;13.85;;;11.13;;
14734;SDS011;7458;49.002;8.472;2023-04-09T03:37:13;13.30;;;9.70;;
14734;SDS011;7458;49.002;8.472;2023-04-09T03:39:40;12.10;;;9.05;;
14734;SDS011;7458;49.002;8.472;2023-04-09T03:42:06;15.60;;;10.10;;
14734;SDS011;7458;49.002;8.472;2023-04-09T03:44:32;12.27;;;9.70;;
14734;SDS011;7458;49.002;8.472;2023-04-09T03:46:57;14.18;;;9.38;;
14734;SDS011;7458;49.002;8.472;2023-04-09T03:49:23;10.85;;;9.68;;
14734;SDS011;7458;49.002;8.472;2023-04-09T03:51:49;16.17;;;11.07;;
14734;SDS011;7458;49.002;8.472;2023-04-09T03:54:15;15.63;;;11.73;;
14734;SDS011;7458;49.002;8.472;2023-04-09T03:56:41;12.73;;;10.32;;
14734;SDS011;7458;49.002;8.472;2023-04-09T03:59:07;15.35;;;11.60;;
14734;SDS011;7458;49.002;8.472;2023-04-09T04:01:32;18.05;;;12.40;;
14734;SDS011;7458;49.002;8.472;2023-04-09T04:03:58;18.90;;;10.95;;
14734;SDS011;7458;49.002;8.472;2023-04-09T04:06:24;17.80;;;10.70;;
14734;SDS011;7458;49.002;8.472;2023-04-09T04:08:51;14.73;;;10.10;;
14734;SDS011;7458;49.002;8.472;2023-04-09T04:11:17;15.13;;;11.27;;
14734;SDS011;7458;49.002;8.472;2023-04-09T04:13:43;14.18;;;10.40;;
14734;SDS011;7458;49.002;8.472;2023-04-09T04:16:09;11.63;;;9.98;;
14734;SDS011;7458;49.002;8.472;2023-04-09T04:18:35;18.17;;;11.63;;
14734;SDS011;7458;49.002;8.472;2023-04-09T04:21:01;14.98;;;10.68;;
14734;SDS011;7458;49.002;8.472;2023-04-09T04:23:27;19.40;;;11.43;;
14734;SDS011;7458;49.002;8.472;2023-04-09T04:25:53;12.93;;;10.65;;
14734;SDS011;7458;49.002;8.472;2023-04-09T04:28:20;14.20;;;11.20;;
14734;SDS011;7458;49.002;8.472;2023-04-09T04:30:46;16.67;;;11.38;;
14734;SDS011;7458;49.002;8.472;2023-04-09T04:33:12;13.07;;;10.60;;
14734;SDS011;7458;49.002;8.472;2023-04-09T04:35:38;12.32;;;11.00;;
14734;SDS011;7458;49.002;8.472;2023-04-09T04:38:04;13.45;;;11.18;;
14734;SDS011;7458;49.002;8.472;2023-04-09T04:40:30;14.52;;;11.30;;
14734;SDS011;7458;49.002;8.472;2023-04-09T04:42:56;13.73;;;11.13;;
14734;SDS011;7458;49.002;8.472;2023-04-09T04:45:21;14.30;;;10.90;;
14734;SDS011;7458;49.002;8.472;2023-04-09T04:47:47;12.23;;;10.93;;
14734;SDS011;7458;49.002;8.472;2023-04-09T04:50:13;18.23;;;11.13;;
14734;SDS011;7458;49.002;8.472;2023-04-09T04:52:39;16.75;;;11.98;;
14734;SDS011;7458;49.002;8.472;2023-04-09T04:55:05;13.40;;;10.75;;
14734;SDS011;7458;49.002;8.472;2023-04-09T04:57:31;12.70;;;10.55;;
14734;SDS011;7458;49.002;8.472;2023-04-09T04:59:57;18.70;;;13.40;;
14734;SDS011;7458;49.002;8.472;2023-04-09T05:02:23;13.20;;;11.23;;
14734;SDS011;7458;49.002;8.472;2023-04-09T05:04:48;18.00;;;12.13;;
14734;SDS011;7458;49.002;8.472;2023-04-09T05:07:14;17.42;;;11.45;;
14734;SDS011;7458;49.002;8.472;2023-04-09T05:09:40;22.45;;;12.70;;
14734;SDS011;7458;49.002;8.472;2023-04-09T05:12:08;15.45;;;12.02;;
14734;SDS011;7458;49.002;8.472;2023-04-09T05:14:33;14.70;;;12.20;;
14734;SDS011;7458;49.002;8.472;2023-04-09T05:17:00;16.23;;;11.82;;
14734;SDS011;7458;49.002;8.472;2023-04-09T05:19:25;14.25;;;11.77;;
14734;SDS011;7458;49.002;8.472;2023-04-09T05:21:51;16.25;;;13.23;;
14734;SDS011;7458;49.002;8.472;2023-04-09T05:24:17;15.93;;;12.05;;
14734;SDS011;7458;49.002;8.472;2023-04-09T05:26:43;15.65;;;12.88;;
14734;SDS011;7458;49.002;8.472;2023-04-09T05:29:09;17.42;;;11.73;;
14734;SDS011;7458;49.002;8.472;2023-04-09T05:31:35;16.85;;;12.18;;
14734;SDS011;7458;49.002;8.472;2023-04-09T05:34:01;13.18;;;11.07;;
14734;SDS011;7458;49.002;8.472;2023-04-09T05:36:27;16.73;;;11.98;;
14734;SDS011;7458;49.002;8.472;2023-04-09T05:38:52;17.92;;;12.90;;
14734;SDS011;7458;49.002;8.472;2023-04-09T05:41:18;17.30;;;12.82;;
14734;SDS011;7458;49.002;8.472;2023-04-09T05:43:44;16.25;;;13.15;;
14734;SDS011;7458;49.002;8.472;2023-04-09T05:46:10;17.08;;;12.55;;
14734;SDS011;7458;49.002;8.472;2023-04-09T05:48:35;17.58;;;12.60;;
14734;SDS011;7458;49.002;8.472;2023-04-09T05:51:01;19.40;;;13.80;;
14734;SDS011;7458;49.002;8.472;2023-04-09T05:53:27;20.25;;;15.73;;
14734;SDS011;7458;49.002;8.472;2023-04-09T05:55:55;19.70;;;13.82;;
14734;SDS011;7458;49.002;8.472;2023-04-09T05:58:21;16.58;;;12.80;;
14734;SDS011;7458;49.002;8.472;2023-04-09T06:00:47;14.48;;;12.35;;
14734;SDS011;7458;49.002;8.472;2023-04-09T06:03:15;17.08;;;13.35;;
14734;SDS011;7458;49.002;8.472;2023-04-09T06:05:42;16.25;;;14.13;;
14734;SDS011;7458;49.002;8.472;2023-04-09T06:08:09;18.35;;;14.50;;
14734;SDS011;7458;49.002;8.472;2023-04-09T06:10:36;19.98;;;13.35;;
14734;SDS011;7458;49.002;8.472;2023-04-09T06:13:02;15.95;;;12.18;;
14734;SDS011;7458;49.002;8.472;2023-04-09T06:15:27;16.75;;;13.45;;
14734;SDS011;7458;49.002;8.472;2023-04-09T06:17:53;21.27;;;13.77;;
14734;SDS011;7458;49.002;8.472;2023-04-09T06:20:19;18.58;;;13.63;;
14734;SDS011;7458;49.002;8.472;2023-04-09T06:22:45;16.10;;;13.73;;
14734;SDS011;7458;49.002;8.472;2023-04-09T06:25:12;14.63;;;12.35;;
14734;SDS011;7458;49.002;8.472;2023-04-09T06:27:37;16.70;;;10.98;;
14734;SDS011;7458;49.002;8.472;2023-04-09T06:30:03;14.73;;;12.68;;
14734;SDS011;7458;49.002;8.472;2023-04-09T06:32:30;14.13;;;12.05;;
14734;SDS011;7458;49.002;8.472;2023-04-09T06:34:56;14.80;;;12.75;;
14734;SDS011;7458;49.002;8.472;2023-04-09T06:37:21;14.15;;;11.65;;
14734;SDS011;7458;49.002;8.472;2023-04-09T06:39:47;12.93;;;11.38;;
14734;SDS011;7458;49.002;8.472;2023-04-09T06:42:13;16.05;;;12.63;;
14734;SDS011;7458;49.002;8.472;2023-04-09T06:44:39;16.35;;;13.45;;
14734;SDS011;7458;49.002;8.472;2023-04-09T06:47:05;17.73;;;12.18;;
14734;SDS011;7458;49.002;8.472;2023-04-09T06:49:32;14.68;;;12.30;;
14734;SDS011;7458;49.002;8.472;2023-04-09T06:51:58;13.95;;;11.55;;
14734;SDS011;7458;49.002;8.472;2023-04-09T06:54:24;15.20;;;11.98;;
14734;SDS011;7458;49.002;8.472;2023-04-09T06:56:50;15.50;;;13.13;;
14734;SDS011;7458;49.002;8.472;2023-04-09T06:59:15;14.95;;;13.50;;
14734;SDS011;7458;49.002;8.472;2023-04-09T07:01:41;14.00;;;12.55;;
14734;SDS011;7458;49.002;8.472;2023-04-09T07:04:07;16.75;;;12.02;;
14734;SDS011;7458;49.002;8.472;2023-04-09T07:06:33;15.50;;;12.18;;
14734;SDS011;7458;49.002;8.472;2023-04-09T07:08:59;13.82;;;12.45;;
14734;SDS011;7458;49.002;8.472;2023-04-09T07:11:25;15.20;;;13.60;;
14734;SDS011;7458;49.002;8.472;2023-04-09T07:13:51;17.10;;;14.35;;
14734;SDS011;7458;49.002;8.472;2023-04-09T07:16:16;15.00;;;13.48;;
14734;SDS011;7458;49.002;8.472;2023-04-09T07:18:42;15.73;;;14.13;;
14734;SDS011;7458;49.002;8.472;2023-04-09T07:21:08;15.27;;;12.00;;
14734;SDS011;7458;49.002;8.472;2023-04-09T07:23:34;15.43;;;12.27;;
14734;SDS011;7458;49.002;8.472;2023-04-09T07:26:01;14.13;;;12.75;;
14734;SDS011;7458;49.002;8.472;2023-04-09T07:28:30;15.63;;;12.43;;
14734;SDS011;7458;49.002;8.472;2023-04-09T07:30:56;15.88;;;13.57;;
14734;SDS011;7458;49.002;8.472;2023-04-09T07:33:25;13.88;;;12.27;;
14734;SDS011;7458;49.002;8.472;2023-04-09T07:35:51;14.70;;;13.20;;
14734;SDS011;7458;49.002;8.472;2023-04-09T07:38:16;14.57;;;13.13;;
14734;SDS011;7458;49.002;8.472;2023-04-09T07:40:45;15.82;;;14.18;;
14734;SDS011;7458;49.002;8.472;2023-04-09T07:43:20;18.23;;;14.65;;
14734;SDS011;7458;49.002;8.472;2023-04-09T07:45:49;14.73;;;12.82;;
14734;SDS011;7458;49.002;8.472;2023-04-09T07:48:18;15.02;;;13.43;;
14734;SDS011;7458;49.002;8.472;2023-04-09T07:50:43;15.02;;;13.45;;
14734;SDS011;7458;49.002;8.472;2023-04-09T07:53:09;15.85;;;14.27;;
14734;SDS011;7458;49.002;8.472;2023-04-09T07:55:36;16.25;;;12.73;;
14734;SDS011;7458;49.002;8.472;2023-04-09T07:58:02;14.90;;;13.40;;
14734;SDS011;7458;49.002;8.472;2023-04-09T08:00:29;18.35;;;13.88;;
14734;SDS011;7458;49.002;8.472;2023-04-09T08:02:55;14.00;;;12.02;;
14734;SDS011;7458;49.002;8.472;2023-04-09T08:05:21;15.20;;;13.63;;
14734;SDS011;7458;49.002;8.472;2023-04-09T08:07:49;15.82;;;13.77;;
14734;SDS011;7458;49.002;8.472;2023-04-09T08:10:15;13.90;;;12.50;;
14734;SDS011;7458;49.002;8.472;2023-04-09T08:12:41;13.18;;;11.95;;
14734;SDS011;7458;49.002;8.472;2023-04-09T08:15:07;15.65;;;13.70;;
14734;SDS011;7458;49.002;8.472;2023-04-09T08:17:33;17.38;;;15.57;;
14734;SDS011;7458;49.002;8.472;2023-04-09T08:20:01;16.58;;;13.60;;
14734;SDS011;7458;49.002;8.472;2023-04-09T08:22:31;15.70;;;14.23;;
14734;SDS011;7458;49.002;8.472;2023-04-09T08:24:57;16.48;;;14.38;;
14734;SDS011;7458;49.002;8.472;2023-04-09T08:27:23;15.35;;;13.88;;
14734;SDS011;7458;49.002;8.472;2023-04-09T08:29:49;14.95;;;13.00;;
14734;SDS011;7458;49.002;8.472;2023-04-09T08:32:15;15.52;;;13.95;;
14734;SDS011;7458;49.002;8.472;2023-04-09T08:34:41;14.95;;;13.50;;
14734;SDS011;7458;49.002;8.472;2023-04-09T08:37:06;14.25;;;12.85;;
14734;SDS011;7458;49.002;8.472;2023-04-09T08:39:33;15.90;;;13.90;;
14734;SDS011;7458;49.002;8.472;2023-04-09T08:42:00;14.07;;;12.77;;
14734;SDS011;7458;49.002;8.472;2023-04-09T08:44:27;14.82;;;12.57;;
14734;SDS011;7458;49.002;8.472;2023-04-09T08:46:53;14.80;;;13.40;;
14734;SDS011;7458;49.002;8.472;2023-04-09T08:49:20;13.82;;;12.43;;
14734;SDS011;7458;49.002;8.472;2023-04-09T08:51:46;12.63;;;11.25;;
14734;SDS011;7458;49.002;8.472;2023-04-09T08:54:16;14.00;;;12.57;;
14734;SDS011;7458;49.002;8.472;2023-04-09T08:56:45;14.05;;;11.35;;
14734;SDS011;7458;49.002;8.472;2023-04-09T08:59:15;12.10;;;10.82;;
14734;SDS011;7458;49.002;8.472;2023-04-09T09:01:44;11.75;;;10.55;;
14734;SDS011;7458;49.002;8.472;2023-04-09T09:04:13;11.75;;;10.48;;
14734;SDS011;7458;49.002;8.472;2023-04-09T09:06:40;10.30;;;9.20;;
14734;SDS011;7458;49.002;8.472;2023-04-09T09:09:13;9.10;;;8.18;;
14734;SDS011;7458;49.002;8.472;2023-04-09T09:11:44;9.27;;;7.75;;
14734;SDS011;7458;49.002;8.472;2023-04-09T09:14:13;11.05;;;8.55;;
14734;SDS011;7458;49.002;8.472;2023-04-09T09:16:43;8.25;;;7.35;;
14734;SDS011;7458;49.002;8.472;2023-04-09T09:19:29;8.77;;;7.50;;
14734;SDS011;7458;49.002;8.472;2023-04-09T09:22:04;7.43;;;6.47;;
14734;SDS011;7458;49.002;8.472;2023-04-09T09:24:43;8.82;;;5.70;;
14734;SDS011;7458;49.002;8.472;2023-04-09T09:27:32;7.25;;;6.15;;
14734;SDS011;7458;49.002;8.472;2023-04-09T09:30:01;7.88;;;6.28;;
14734;SDS011;7458;49.002;8.472;2023-04-09T09:32:29;8.73;;;7.82;;
14734;SDS011;7458;49.002;8.472;2023-04-09T09:35:03;9.32;;;8.43;;
14734;SDS011;7458;49.002;8.472;2023-04-09T09:37:31;7.88;;;7.10;;
14734;SDS011;7458;49.002;8.472;2023-04-09T09:39:58;8.63;;;7.75;;
14734;SDS011;7458;49.002;8.472;2023-04-09T09:42:25;9.30;;;8.32;;
14734;SDS011;7458;49.002;8.472;2023-04-09T09:44:51;9.82;;;8.77;;
14734;SDS011;7458;49.002;8.472;2023-04-09T09:47:19;10.00;;;9.00;;
14734;SDS011;7458;49.002;8.472;2023-04-09T09:49:47;11.05;;;10.07;;
14734;SDS011;7458;49.002;8.472;2023-04-09T09:52:14;11.88;;;9.95;;
14734;SDS011;7458;49.002;8.472;2023-04-09T09:54:54;10.60;;;9.18;;
14734;SDS011;7458;49.002;8.472;2023-04-09T09:57:24;9.60;;;8.60;;
14734;SDS011;7458;49.002;8.472;2023-04-09T09:59:55;11.80;;;10.38;;
14734;SDS011;7458;49.002;8.472;2023-04-09T10:02:29;10.85;;;9.50;;
14734;SDS011;7458;49.002;8.472;2023-04-09T10:05:04;11.27;;;10.10;;
14734;SDS011;7458;49.002;8.472;2023-04-09T10:07:32;14.23;;;8.60;;
14734;SDS011;7458;49.002;8.472;2023-04-09T10:10:00;9.50;;;8.55;;
14734;SDS011;7458;49.002;8.472;2023-04-09T10:12:29;13.73;;;9.48;;
14734;SDS011;7458;49.002;8.472;2023-04-09T10:14:56;10.18;;;8.90;;
14734;SDS011;7458;49.002;8.472;2023-04-09T10:17:28;9.73;;;8.73;;
14734;SDS011;7458;49.002;8.472;2023-04-09T10:19:59;9.45;;;8.20;;
14734;SDS011;7458;49.002;8.472;2023-04-09T10:22:39;10.27;;;8.23;;
14734;SDS011;7458;49.002;8.472;2023-04-09T10:25:12;9.18;;;8.27;;
14734;SDS011;7458;49.002;8.472;2023-04-09T10:27:38;10.60;;;9.50;;
14734;SDS011;7458;49.002;8.472;2023-04-09T10:30:06;7.03;;;4.65;;
14734;SDS011;7458;49.002;8.472;2023-04-09T10:32:34;6.32;;;5.72;;
14734;SDS011;7458;49.002;8.472;2023-04-09T10:35:01;6.38;;;5.22;;
14734;SDS011;7458;49.002;8.472;2023-04-09T10:37:28;5.80;;;4.60;;
14734;SDS011;7458;49.002;8.472;2023-04-09T10:39:54;35.38;;;31.25;;
14734;SDS011;7458;49.002;8.472;2023-04-09T10:42:23;14.00;;;11.40;;
14734;SDS011;7458;49.002;8.472;2023-04-09T10:45:03;13.27;;;12.00;;
14734;SDS011;7458;49.002;8.472;2023-04-09T10:47:41;16.80;;;11.80;;
14734;SDS011;7458;49.002;8.472;2023-04-09T10:52:53;10.85;;;8.23;;
14734;SDS011;7458;49.002;8.472;2023-04-09T10:55:38;5.85;;;5.25;;
14734;SDS011;7458;49.002;8.472;2023-04-09T10:58:06;7.18;;;6.18;;
14734;SDS011;7458;49.002;8.472;2023-04-09T11:00:38;6.63;;;5.60;;
14734;SDS011;7458;49.002;8.472;2023-04-09T11:05:54;5.53;;;4.75;;
14734;SDS011;7458;49.002;8.472;2023-04-09T11:08:34;7.10;;;5.28;;
14734;SDS011;7458;49.002;8.472;2023-04-09T11:11:02;5.80;;;4.68;;
14734;SDS011;7458;49.002;8.472;2023-04-09T11:13:29;5.32;;;4.70;;
14734;SDS011;7458;49.002;8.472;2023-04-09T11:15:56;6.18;;;5.25;;
14734;SDS011;7458;49.002;8.472;2023-04-09T11:18:24;6.00;;;4.78;;
14734;SDS011;7458;49.002;8.472;2023-04-09T11:20:53;5.50;;;4.60;;
14734;SDS011;7458;49.002;8.472;2023-04-09T11:23:23;6.25;;;5.40;;
14734;SDS011;7458;49.002;8.472;2023-04-09T11:25:50;6.07;;;4.43;;
14734;SDS011;7458;49.002;8.472;2023-04-09T11:28:17;6.03;;;4.68;;
14734;SDS011;7458;49.002;8.472;2023-04-09T11:30:44;5.97;;;4.35;;
14734;SDS011;7458;49.002;8.472;2023-04-09T11:33:11;7.35;;;6.55;;
14734;SDS011;7458;49.002;8.472;2023-04-09T11:35:38;5.25;;;4.30;;
14734;SDS011;7458;49.002;8.472;2023-04-09T11:38:07;5.55;;;4.70;;
14734;SDS011;7458;49.002;8.472;2023-04-09T11:40:35;6.15;;;5.55;;
14734;SDS011;7458;49.002;8.472;2023-04-09T11:43:07;6.22;;;5.63;;
14734;SDS011;7458;49.002;8.472;2023-04-09T11:45:33;7.38;;;5.63;;
14734;SDS011;7458;49.002;8.472;2023-04-09T11:47:59;7.10;;;5.68;;
14734;SDS011;7458;49.002;8.472;2023-04-09T11:50:26;6.82;;;5.22;;
14734;SDS011;7458;49.002;8.472;2023-04-09T11:52:52;6.50;;;5.75;;
14734;SDS011;7458;49.002;8.472;2023-04-09T11:55:25;5.82;;;4.95;;
14734;SDS011;7458;49.002;8.472;2023-04-09T11:57:57;6.28;;;5.13;;
14734;SDS011;7458;49.002;8.472;2023-04-09T12:00:25;5.38;;;4.80;;
14734;SDS011;7458;49.002;8.472;2023-04-09T12:03:02;6.38;;;5.68;;
14734;SDS011;7458;49.002;8.472;2023-04-09T12:05:30;6.32;;;4.80;;
14734;SDS011;7458;49.002;8.472;2023-04-09T12:08:02;5.65;;;5.10;;
14734;SDS011;7458;49.002;8.472;2023-04-09T12:10:33;6.03;;;4.95;;
14734;SDS011;7458;49.002;8.472;2023-04-09T12:13:02;6.00;;;4.78;;
14734;SDS011;7458;49.002;8.472;2023-04-09T12:15:32;5.03;;;4.07;;
14734;SDS011;7458;49.002;8.472;2023-04-09T12:18:01;6.32;;;4.90;;
14734;SDS011;7458;49.002;8.472;2023-04-09T12:20:31;5.40;;;4.80;;
14734;SDS011;7458;49.002;8.472;2023-04-09T12:23:09;5.43;;;4.40;;
14734;SDS011;7458;49.002;8.472;2023-04-09T12:25:40;5.38;;;4.85;;
14734;SDS011;7458;49.002;8.472;2023-04-09T12:28:09;5.60;;;5.03;;
14734;SDS011;7458;49.002;8.472;2023-04-09T12:30:41;6.97;;;5.10;;
14734;SDS011;7458;49.002;8.472;2023-04-09T12:33:08;6.35;;;5.00;;
14734;SDS011;7458;49.002;8.472;2023-04-09T12:35:34;5.68;;;5.05;;
14734;SDS011;7458;49.002;8.472;2023-04-09T12:38:01;6.15;;;5.35;;
14734;SDS011;7458;49.002;8.472;2023-04-09T12:40:29;5.40;;;4.72;;
14734;SDS011;7458;49.002;8.472;2023-04-09T12:42:55;5.88;;;4.82;;
14734;SDS011;7458;49.002;8.472;2023-04-09T12:45:21;5.68;;;5.15;;
14734;SDS011;7458;49.002;8.472;2023-04-09T12:47:47;5.32;;;4.03;;
14734;SDS011;7458;49.002;8.472;2023-04-09T12:50:13;4.88;;;4.28;;
14734;SDS011;7458;49.002;8.472;2023-04-09T12:52:40;5.70;;;4.85;;
14734;SDS011;7458;49.002;8.472;2023-04-09T12:55:07;5.15;;;4.40;;
14734;SDS011;7458;49.002;8.472;2023-04-09T12:57:35;10.15;;;7.72;;
14734;SDS011;7458;49.002;8.472;2023-04-09T13:00:03;5.75;;;4.80;;
14734;SDS011;7458;49.002;8.472;2023-04-09T13:02:31;6.72;;;4.80;;
14734;SDS011;7458;49.002;8.472;2023-04-09T13:04:58;5.13;;;4.53;;
14734;SDS011;7458;49.002;8.472;2023-04-09T13:07:24;5.07;;;4.28;;
14734;SDS011;7458;49.002;8.472;2023-04-09T13:09:53;6.43;;;4.57;;
14734;SDS011;7458;49.002;8.472;2023-04-09T13:12:20;5.50;;;4.60;;
14734;SDS011;7458;49.002;8.472;2023-04-09T13:14:46;5.68;;;4.38;;
14734;SDS011;7458;49.002;8.472;2023-04-09T13:17:15;4.97;;;4.05;;
14734;SDS011;7458;49.002;8.472;2023-04-09T13:19:41;5.15;;;4.63;;
14734;SDS011;7458;49.002;8.472;2023-04-09T13:22:07;5.72;;;5.13;;
14734;SDS011;7458;49.002;8.472;2023-04-09T13:24:34;5.68;;;4.68;;
14734;SDS011;7458;49.002;8.472;2023-04-09T13:27:00;5.35;;;4.60;;
14734;SDS011;7458;49.002;8.472;2023-04-09T13:29:27;5.05;;;4.55;;
14734;SDS011;7458;49.002;8.472;2023-04-09T13:31:54;5.95;;;4.63;;
14734;SDS011;7458;49.002;8.472;2023-04-09T13:34:21;5.05;;;4.10;;
14734;SDS011;7458;49.002;8.472;2023-04-09T13:36:47;5.72;;;5.07;;
14734;SDS011;7458;49.002;8.472;2023-04-09T13:39:14;5.85;;;4.03;;
14734;SDS011;7458;49.002;8.472;2023-04-09T13:41:40;5.93;;;5.38;;
14734;SDS011;7458;49.002;8.472;2023-04-09T13:44:06;5.53;;;4.22;;
14734;SDS011;7458;49.002;8.472;2023-04-09T13:46:32;5.25;;;3.80;;
14734;SDS011;7458;49.002;8.472;2023-04-09T13:48:58;7.32;;;4.70;;
14734;SDS011;7458;49.002;8.472;2023-04-09T13:51:24;5.03;;;4.53;;
14734;SDS011;7458;49.002;8.472;2023-04-09T13:53:53;5.78;;;4.70;;
14734;SDS011;7458;49.002;8.472;2023-04-09T13:56:19;7.20;;;6.05;;
14734;SDS011;7458;49.002;8.472;2023-04-09T13:58:45;5.60;;;4.82;;
14734;SDS011;7458;49.002;8.472;2023-04-09T14:01:12;7.07;;;4.88;;
14734;SDS011;7458;49.002;8.472;2023-04-09T14:03:38;5.70;;;4.63;;
14734;SDS011;7458;49.002;8.472;2023-04-09T14:06:05;6.70;;;5.63;;
14734;SDS011;7458;49.002;8.472;2023-04-09T14:08:32;6.07;;;4.80;;
14734;SDS011;7458;49.002;8.472;2023-04-09T14:10:59;5.93;;;4.68;;
14734;SDS011;7458;49.002;8.472;2023-04-09T14:13:25;4.97;;;4.43;;
14734;SDS011;7458;49.002;8.472;2023-04-09T14:15:51;5.30;;;4.75;;
14734;SDS011;7458;49.002;8.472;2023-04-09T14:18:17;5.55;;;4.78;;
14734;SDS011;7458;49.002;8.472;2023-04-09T14:20:43;4.82;;;3.80;;
14734;SDS011;7458;49.002;8.472;2023-04-09T14:23:08;5.47;;;3.97;;
14734;SDS011;7458;49.002;8.472;2023-04-09T14:25:34;7.80;;;4.60;;
14734;SDS011;7458;49.002;8.472;2023-04-09T14:28:00;7.45;;;5.25;;
14734;SDS011;7458;49.002;8.472;2023-04-09T14:30:26;6.53;;;4.13;;
14734;SDS011;7458;49.002;8.472;2023-04-09T14:32:52;5.22;;;4.43;;
14734;SDS011;7458;49.002;8.472;2023-04-09T14:35:17;5.53;;;4.97;;
14734;SDS011;7458;49.002;8.472;2023-04-09T14:37:44;10.98;;;5.80;;
14734;SDS011;7458;49.002;8.472;2023-04-09T14:40:11;6.80;;;5.78;;
14734;SDS011;7458;49.002;8.472;2023-04-09T14:42:37;5.78;;;4.72;;
14734;SDS011;7458;49.002;8.472;2023-04-09T14:45:05;6.18;;;5.03;;
14734;SDS011;7458;49.002;8.472;2023-04-09T14:47:31;5.35;;;4.57;;
14734;SDS011;7458;49.002;8.472;2023-04-09T14:49:58;5.47;;;4.32;;
14734;SDS011;7458;49.002;8.472;2023-04-09T14:52:23;6.13;;;5.53;;
14734;SDS011;7458;49.002;8.472;2023-04-09T14:54:49;8.30;;;6.78;;
14734;SDS011;7458;49.002;8.472;2023-04-09T14:57:15;7.28;;;4.35;;
14734;SDS011;7458;49.002;8.472;2023-04-09T14:59:41;5.78;;;5.22;;
14734;SDS011;7458;49.002;8.472;2023-04-09T15:02:07;6.75;;;5.03;;
14734;SDS011;7458;49.002;8.472;2023-04-09T15:04:33;5.05;;;4.18;;
14734;SDS011;7458;49.002;8.472;2023-04-09T15:06:59;9.23;;;5.03;;
14734;SDS011;7458;49.002;8.472;2023-04-09T15:09:24;6.10;;;5.05;;